sensor_id;sensor_type;location;lat;lon;timestamp;pressure;altitude;pressure_sealevel;temperature;humidity
56270;BME280;42176;43.240;27.880;2022-11-15T00:01:44;100970.22;;;8.43;99.85
56270;BME280;42176;43.240;27.880;2022-11-15T00:04:10;100967.59;;;8.41;99.94
56270;BME280;42176;43.240;27.880;2022-11-15T00:06:35;100963.19;;;8.38;99.71
56270;BME280;42176;43.240;27.880;2022-11-15T00:09:01;100960.53;;;8.34;99.82
56270;BME280;42176;43.240;27.880;2022-11-15T00:11:26;100961.44;;;8.31;100.00
56270;BME280;42176;43.240;27.880;2022-11-15T00:13:55;100966.69;;;8.28;100.00
56270;BME280;42176;43.240;27.880;2022-11-15T00:16:20;100965.81;;;8.29;100.00
56270;BME280;42176;43.240;27.880;2022-11-15T00:18:46;100949.09;;;8.27;100.00
56270;BME280;42176;43.240;27.880;2022-11-15T00:21:13;100947.34;;;8.23;100.00
56270;BME280;42176;43.240;27.880;2022-11-15T00:23:39;100958.78;;;8.20;100.00
56270;BME280;42176;43.240;27.880;2022-11-15T00:26:04;100949.09;;;8.15;100.00
56270;BME280;42176;43.240;27.880;2022-11-15T00:28:30;100959.66;;;8.18;100.00
56270;BME280;42176;43.240;27.880;2022-11-15T00:31:03;100952.59;;;8.14;100.00
56270;BME280;42176;43.240;27.880;2022-11-15T00:33:30;100949.06;;;8.12;100.00
56270;BME280;42176;43.240;27.880;2022-11-15T00:36:05;100951.72;;;8.18;100.00
56270;BME280;42176;43.240;27.880;2022-11-15T00:38:36;100948.19;;;8.20;100.00
56270;BME280;42176;43.240;27.880;2022-11-15T00:41:04;100943.81;;;8.21;100.00
56270;BME280;42176;43.240;27.880;2022-11-15T00:43:30;100942.91;;;8.20;100.00
56270;BME280;42176;43.240;27.880;2022-11-15T00:45:55;100936.75;;;8.18;100.00
56270;BME280;42176;43.240;27.880;2022-11-15T00:48:21;100941.16;;;8.18;100.00
56270;BME280;42176;43.240;27.880;2022-11-15T00:50:48;100937.66;;;8.17;100.00
56270;BME280;42176;43.240;27.880;2022-11-15T00:53:14;100938.53;;;8.18;100.00
56270;BME280;42176;43.240;27.880;2022-11-15T00:55:40;100936.78;;;8.25;100.00
56270;BME280;42176;43.240;27.880;2022-11-15T00:58:05;100938.53;;;8.24;100.00
56270;BME280;42176;43.240;27.880;2022-11-15T01:00:30;100903.31;;;8.03;100.00
56270;BME280;42176;43.240;27.880;2022-11-15T01:02:56;100927.09;;;8.27;100.00
56270;BME280;42176;43.240;27.880;2022-11-15T01:05:22;100927.09;;;8.30;100.00
56270;BME280;42176;43.240;27.880;2022-11-15T01:07:51;100920.91;;;8.29;100.00
56270;BME280;42176;43.240;27.880;2022-11-15T01:10:17;100931.47;;;8.29;100.00
56270;BME280;42176;43.240;27.880;2022-11-15T01:12:42;100927.97;;;8.33;100.00
56270;BME280;42176;43.240;27.880;2022-11-15T01:15:08;100914.75;;;8.22;100.00
56270;BME280;42176;43.240;27.880;2022-11-15T01:17:34;100924.44;;;8.34;100.00
56270;BME280;42176;43.240;27.880;2022-11-15T01:19:59;100931.47;;;8.29;100.00
56270;BME280;42176;43.240;27.880;2022-11-15T01:22:24;100928.81;;;8.18;100.00
56270;BME280;42176;43.240;27.880;2022-11-15T01:24:50;100920.03;;;8.10;100.00
56270;BME280;42176;43.240;27.880;2022-11-15T01:27:16;100935.00;;;8.13;100.00
56270;BME280;42176;43.240;27.880;2022-11-15T01:29:42;100927.09;;;8.02;100.00
56270;BME280;42176;43.240;27.880;2022-11-15T01:32:07;100927.97;;;8.05;100.00
56270;BME280;42176;43.240;27.880;2022-11-15T01:34:33;100930.59;;;8.10;100.00
56270;BME280;42176;43.240;27.880;2022-11-15T01:36:58;100924.44;;;8.11;100.00
56270;BME280;42176;43.240;27.880;2022-11-15T01:39:24;100928.84;;;8.12;100.00
56270;BME280;42176;43.240;27.880;2022-11-15T01:41:50;100927.94;;;8.12;100.00
56270;BME280;42176;43.240;27.880;2022-11-15T01:44:39;100922.66;;;8.12;100.00
56270;BME280;42176;43.240;27.880;2022-11-15T01:47:21;100924.44;;;8.16;100.00
56270;BME280;42176;43.240;27.880;2022-11-15T01:52:28;100927.94;;;8.12;100.00
56270;BME280;42176;43.240;27.880;2022-11-15T01:55:15;100926.19;;;8.11;100.00
56270;BME280;42176;43.240;27.880;2022-11-15T01:57:42;100912.13;;;8.10;100.00
56270;BME280;42176;43.240;27.880;2022-11-15T02:00:10;100910.34;;;8.11;100.00
56270;BME280;42176;43.240;27.880;2022-11-15T02:02:36;100910.34;;;8.11;100.00
56270;BME280;42176;43.240;27.880;2022-11-15T02:05:02;100903.31;;;8.06;100.00
56270;BME280;42176;43.240;27.880;2022-11-15T02:07:29;100896.28;;;8.08;100.00
56270;BME280;42176;43.240;27.880;2022-11-15T02:09:58;100905.06;;;8.07;100.00
56270;BME280;42176;43.240;27.880;2022-11-15T02:12:27;100905.06;;;8.07;100.00
56270;BME280;42176;43.240;27.880;2022-11-15T02:14:54;100908.59;;;8.03;100.00
56270;BME280;42176;43.240;27.880;2022-11-15T02:36:40;100905.97;;;8.02;100.00
56270;BME280;42176;43.240;27.880;2022-11-15T02:39:20;100901.53;;;7.99;100.00
56270;BME280;42176;43.240;27.880;2022-11-15T02:41:59;100899.78;;;8.01;100.00
56270;BME280;42176;43.240;27.880;2022-11-15T02:44:39;100895.41;;;8.02;100.00
56270;BME280;42176;43.240;27.880;2022-11-15T02:47:12;100892.75;;;8.00;100.00
56270;BME280;42176;43.240;27.880;2022-11-15T02:49:41;100894.50;;;8.01;100.00
56270;BME280;42176;43.240;27.880;2022-11-15T02:52:08;100884.81;;;7.99;100.00
56270;BME280;42176;43.240;27.880;2022-11-15T02:54:34;100873.38;;;7.98;100.00
56270;BME280;42176;43.240;27.880;2022-11-15T02:57:12;100881.31;;;8.00;100.00
56270;BME280;42176;43.240;27.880;2022-11-15T03:00:35;100876.88;;;7.97;100.00
56270;BME280;42176;43.240;27.880;2022-11-15T03:03:00;100871.63;;;7.94;100.00
56270;BME280;42176;43.240;27.880;2022-11-15T03:05:35;100877.78;;;7.99;100.00
56270;BME280;42176;43.240;27.880;2022-11-15T03:08:19;100881.28;;;8.01;100.00
56270;BME280;42176;43.240;27.880;2022-11-15T03:11:13;100876.00;;;8.03;100.00
56270;BME280;42176;43.240;27.880;2022-11-15T03:16:44;100875.13;;;8.04;100.00
56270;BME280;42176;43.240;27.880;2022-11-15T03:22:02;100872.50;;;8.07;100.00
56270;BME280;42176;43.240;27.880;2022-11-15T03:24:29;100873.38;;;8.11;100.00
56270;BME280;42176;43.240;27.880;2022-11-15T03:26:59;100863.69;;;8.11;100.00
56270;BME280;42176;43.240;27.880;2022-11-15T03:29:31;100859.28;;;8.12;100.00
56270;BME280;42176;43.240;27.880;2022-11-15T03:32:01;100859.28;;;8.04;100.00
56270;BME280;42176;43.240;27.880;2022-11-15T03:34:32;100865.44;;;8.06;100.00
56270;BME280;42176;43.240;27.880;2022-11-15T03:36:59;100859.31;;;8.08;100.00
56270;BME280;42176;43.240;27.880;2022-11-15T03:39:25;100849.63;;;8.07;100.00
56270;BME280;42176;43.240;27.880;2022-11-15T03:42:02;100852.25;;;8.11;100.00
56270;BME280;42176;43.240;27.880;2022-11-15T03:44:45;100846.09;;;8.04;100.00
56270;BME280;42176;43.240;27.880;2022-11-15T03:47:18;100843.44;;;7.99;100.00
56270;BME280;42176;43.240;27.880;2022-11-15T03:49:55;100837.28;;;8.00;100.00
56270;BME280;42176;43.240;27.880;2022-11-15T03:52:23;100834.66;;;8.03;100.00
56270;BME280;42176;43.240;27.880;2022-11-15T03:54:50;100838.19;;;8.05;100.00
56270;BME280;42176;43.240;27.880;2022-11-15T03:57:17;100834.66;;;8.00;100.00
56270;BME280;42176;43.240;27.880;2022-11-15T03:59:43;100832.88;;;7.99;100.00
56270;BME280;42176;43.240;27.880;2022-11-15T04:02:08;100828.50;;;8.04;100.00
56270;BME280;42176;43.240;27.880;2022-11-15T04:04:34;100830.25;;;8.04;100.00
56270;BME280;42176;43.240;27.880;2022-11-15T04:06:59;100815.31;;;8.07;100.00
56270;BME280;42176;43.240;27.880;2022-11-15T04:09:24;100832.88;;;8.15;100.00
56270;BME280;42176;43.240;27.880;2022-11-15T04:11:50;100833.75;;;8.14;100.00
56270;BME280;42176;43.240;27.880;2022-11-15T04:14:15;100835.53;;;8.18;100.00
56270;BME280;42176;43.240;27.880;2022-11-15T04:16:41;100835.53;;;8.24;100.00
56270;BME280;42176;43.240;27.880;2022-11-15T04:19:06;100835.53;;;8.29;100.00
56270;BME280;42176;43.240;27.880;2022-11-15T04:21:50;100836.38;;;8.35;100.00
56270;BME280;42176;43.240;27.880;2022-11-15T04:24:34;100827.59;;;8.40;100.00
56270;BME280;42176;43.240;27.880;2022-11-15T04:27:00;100835.47;;;8.43;100.00
56270;BME280;42176;43.240;27.880;2022-11-15T04:29:25;100838.16;;;8.49;100.00
56270;BME280;42176;43.240;27.880;2022-11-15T04:32:03;100831.09;;;8.48;100.00
56270;BME280;42176;43.240;27.880;2022-11-15T04:34:29;100836.34;;;8.42;100.00
56270;BME280;42176;43.240;27.880;2022-11-15T04:36:54;100831.97;;;8.45;100.00
56270;BME280;42176;43.240;27.880;2022-11-15T04:39:42;100830.19;;;8.46;100.00
56270;BME280;42176;43.240;27.880;2022-11-15T04:42:08;100816.13;;;8.34;100.00
56270;BME280;42176;43.240;27.880;2022-11-15T04:44:34;100831.09;;;8.37;100.00
56270;BME280;42176;43.240;27.880;2022-11-15T04:47:00;100829.34;;;8.37;100.00
56270;BME280;42176;43.240;27.880;2022-11-15T04:49:26;100829.34;;;8.31;100.00
56270;BME280;42176;43.240;27.880;2022-11-15T04:51:51;100819.66;;;8.33;100.00
56270;BME280;42176;43.240;27.880;2022-11-15T04:54:17;100822.31;;;8.40;100.00
56270;BME280;42176;43.240;27.880;2022-11-15T04:56:42;100825.81;;;8.48;100.00
56270;BME280;42176;43.240;27.880;2022-11-15T04:59:08;100816.97;;;8.58;100.00
56270;BME280;42176;43.240;27.880;2022-11-15T05:01:33;100800.25;;;8.55;100.00
56270;BME280;42176;43.240;27.880;2022-11-15T05:03:58;100798.50;;;8.55;100.00
56270;BME280;42176;43.240;27.880;2022-11-15T05:06:42;100809.03;;;8.69;100.00
56270;BME280;42176;43.240;27.880;2022-11-15T05:09:08;100816.97;;;8.58;100.00
56270;BME280;42176;43.240;27.880;2022-11-15T05:11:34;100818.75;;;8.62;100.00
56270;BME280;42176;43.240;27.880;2022-11-15T05:13:59;100818.75;;;8.59;100.00
56270;BME280;42176;43.240;27.880;2022-11-15T05:16:25;100813.44;;;8.59;100.00
56270;BME280;42176;43.240;27.880;2022-11-15T05:18:52;100810.81;;;8.62;100.00
56270;BME280;42176;43.240;27.880;2022-11-15T05:21:17;100804.66;;;8.42;100.00
56270;BME280;42176;43.240;27.880;2022-11-15T05:23:43;100818.78;;;8.50;100.00
56270;BME280;42176;43.240;27.880;2022-11-15T05:26:09;100830.22;;;8.55;100.00
56270;BME280;42176;43.240;27.880;2022-11-15T05:28:35;100832.88;;;8.52;100.00
56270;BME280;42176;43.240;27.880;2022-11-15T05:31:08;100832.88;;;8.49;100.00
56270;BME280;42176;43.240;27.880;2022-11-15T05:33:34;100845.16;;;8.47;100.00
56270;BME280;42176;43.240;27.880;2022-11-15T05:36:14;100837.25;;;8.51;100.00
56270;BME280;42176;43.240;27.880;2022-11-15T05:38:43;100829.31;;;8.59;100.00
56270;BME280;42176;43.240;27.880;2022-11-15T05:41:09;100830.16;;;8.69;100.00
56270;BME280;42176;43.240;27.880;2022-11-15T05:43:37;100832.78;;;8.74;99.56
56270;BME280;42176;43.240;27.880;2022-11-15T05:46:04;100832.78;;;8.80;99.94
56270;BME280;42176;43.240;27.880;2022-11-15T05:48:30;100832.78;;;8.86;98.22
56270;BME280;42176;43.240;27.880;2022-11-15T05:50:56;100820.44;;;8.76;97.82
56270;BME280;42176;43.240;27.880;2022-11-15T05:53:22;100826.63;;;8.78;98.33
56270;BME280;42176;43.240;27.880;2022-11-15T05:55:49;100822.19;;;8.83;97.48
56270;BME280;42176;43.240;27.880;2022-11-15T05:58:14;100825.75;;;8.73;97.59
56270;BME280;42176;43.240;27.880;2022-11-15T06:00:40;100835.44;;;8.75;97.70
56270;BME280;42176;43.240;27.880;2022-11-15T06:03:08;100817.84;;;8.63;98.32
56270;BME280;42176;43.240;27.880;2022-11-15T06:05:34;100829.31;;;8.72;98.32
56270;BME280;42176;43.240;27.880;2022-11-15T06:08:00;100829.31;;;8.68;98.48
56270;BME280;42176;43.240;27.880;2022-11-15T06:10:25;100828.38;;;8.73;98.88
56270;BME280;42176;43.240;27.880;2022-11-15T06:13:02;100809.91;;;8.70;98.43
56270;BME280;42176;43.240;27.880;2022-11-15T06:15:28;100830.13;;;8.83;98.40
56270;BME280;42176;43.240;27.880;2022-11-15T06:17:57;100823.91;;;8.90;97.70
56270;BME280;42176;43.240;27.880;2022-11-15T06:20:24;100826.56;;;8.93;97.27
56270;BME280;42176;43.240;27.880;2022-11-15T06:22:49;100827.47;;;8.86;97.42
56270;BME280;42176;43.240;27.880;2022-11-15T06:25:15;100836.25;;;8.91;97.26
56270;BME280;42176;43.240;27.880;2022-11-15T06:27:40;100823.06;;;8.90;97.25
56270;BME280;42176;43.240;27.880;2022-11-15T06:30:06;100838.88;;;8.96;97.61
56270;BME280;42176;43.240;27.880;2022-11-15T06:32:32;100827.44;;;8.98;97.34
56270;BME280;42176;43.240;27.880;2022-11-15T06:34:57;100829.13;;;9.09;96.61
56270;BME280;42176;43.240;27.880;2022-11-15T06:37:22;100824.81;;;8.94;96.88
56270;BME280;42176;43.240;27.880;2022-11-15T06:39:48;100836.19;;;9.04;97.11
56270;BME280;42176;43.240;27.880;2022-11-15T06:42:13;100817.75;;;8.93;96.87
56270;BME280;42176;43.240;27.880;2022-11-15T06:44:39;100824.69;;;9.17;96.52
56270;BME280;42176;43.240;27.880;2022-11-15T06:47:04;100814.91;;;9.32;95.25
56270;BME280;42176;43.240;27.880;2022-11-15T06:49:29;100826.38;;;9.31;95.66
56270;BME280;42176;43.240;27.880;2022-11-15T06:51:55;100829.88;;;9.36;95.55
56270;BME280;42176;43.240;27.880;2022-11-15T06:54:20;100830.72;;;9.41;95.14
56270;BME280;42176;43.240;27.880;2022-11-15T06:56:46;100820.19;;;9.36;95.07
56270;BME280;42176;43.240;27.880;2022-11-15T06:59:12;100833.34;;;9.45;95.12
56270;BME280;42176;43.240;27.880;2022-11-15T07:01:37;100832.41;;;9.54;94.30
56270;BME280;42176;43.240;27.880;2022-11-15T07:04:02;100831.47;;;9.63;93.28
56270;BME280;42176;43.240;27.880;2022-11-15T07:06:28;100833.41;;;9.33;89.22
56270;BME280;42176;43.240;27.880;2022-11-15T07:08:53;100836.25;;;8.91;88.58
56270;BME280;42176;43.240;27.880;2022-11-15T07:11:19;100836.38;;;8.48;88.31
56270;BME280;42176;43.240;27.880;2022-11-15T07:13:44;100834.66;;;8.16;93.07
56270;BME280;42176;43.240;27.880;2022-11-15T07:16:10;100834.63;;;8.30;100.00
56270;BME280;42176;43.240;27.880;2022-11-15T07:18:37;100834.63;;;8.56;100.00
56270;BME280;42176;43.240;27.880;2022-11-15T07:21:04;100825.69;;;8.88;100.00
56270;BME280;42176;43.240;27.880;2022-11-15T07:23:30;100830.13;;;8.80;100.00
56270;BME280;42176;43.240;27.880;2022-11-15T07:25:57;100826.69;;;8.51;95.86
56270;BME280;42176;43.240;27.880;2022-11-15T07:28:23;100831.13;;;8.31;96.17
56270;BME280;42176;43.240;27.880;2022-11-15T07:30:49;100824.91;;;8.46;100.00
56270;BME280;42176;43.240;27.880;2022-11-15T07:33:16;100822.22;;;8.74;100.00
56270;BME280;42176;43.240;27.880;2022-11-15T07:35:41;100813.44;;;8.65;100.00
56270;BME280;42176;43.240;27.880;2022-11-15T07:38:08;100830.22;;;8.44;95.38
56270;BME280;42176;43.240;27.880;2022-11-15T07:40:34;100827.53;;;8.64;100.00
56270;BME280;42176;43.240;27.880;2022-11-15T07:43:00;100827.47;;;8.86;100.00
56270;BME280;42176;43.240;27.880;2022-11-15T07:45:26;100820.38;;;9.01;100.00
56270;BME280;42176;43.240;27.880;2022-11-15T07:47:53;100822.16;;;8.89;100.00
56270;BME280;42176;43.240;27.880;2022-11-15T07:50:19;100815.22;;;8.60;94.92
56270;BME280;42176;43.240;27.880;2022-11-15T07:52:45;100822.22;;;8.75;100.00
56270;BME280;42176;43.240;27.880;2022-11-15T07:55:11;100801.00;;;8.92;100.00
56270;BME280;42176;43.240;27.880;2022-11-15T07:57:36;100818.47;;;9.21;100.00
56270;BME280;42176;43.240;27.880;2022-11-15T08:00:04;100814.00;;;9.36;100.00
56270;BME280;42176;43.240;27.880;2022-11-15T08:02:30;100811.47;;;9.17;96.30
56270;BME280;42176;43.240;27.880;2022-11-15T08:04:56;100820.41;;;8.88;94.81
56270;BME280;42176;43.240;27.880;2022-11-15T08:07:21;100817.72;;;8.99;100.00
56270;BME280;42176;43.240;27.880;2022-11-15T08:09:47;100813.25;;;9.09;100.00
56270;BME280;42176;43.240;27.880;2022-11-15T08:12:12;100820.16;;;9.41;100.00
56270;BME280;42176;43.240;27.880;2022-11-15T08:14:39;100826.41;;;9.21;99.45
56270;BME280;42176;43.240;27.880;2022-11-15T08:17:04;100823.06;;;8.93;95.40
56270;BME280;42176;43.240;27.880;2022-11-15T08:19:30;100822.16;;;8.95;100.00
56270;BME280;42176;43.240;27.880;2022-11-15T08:21:55;100807.97;;;9.10;100.00
56270;BME280;42176;43.240;27.880;2022-11-15T08:24:20;100814.13;;;9.14;99.70
56270;BME280;42176;43.240;27.880;2022-11-15T08:26:46;100820.38;;;8.91;97.61
56270;BME280;42176;43.240;27.880;2022-11-15T08:29:12;100808.09;;;8.78;99.85
56270;BME280;42176;43.240;27.880;2022-11-15T08:31:37;100817.66;;;9.13;100.00
56270;BME280;42176;43.240;27.880;2022-11-15T08:34:04;100814.06;;;9.23;100.00
56270;BME280;42176;43.240;27.880;2022-11-15T08:36:30;100815.91;;;9.12;100.00
56270;BME280;42176;43.240;27.880;2022-11-15T08:38:55;100813.44;;;8.68;94.89
56270;BME280;42176;43.240;27.880;2022-11-15T08:41:27;100808.16;;;8.68;100.00
56270;BME280;42176;43.240;27.880;2022-11-15T08:43:54;100792.22;;;8.87;100.00
56270;BME280;42176;43.240;27.880;2022-11-15T08:46:20;100802.59;;;9.27;100.00
56270;BME280;42176;43.240;27.880;2022-11-15T08:48:45;100804.38;;;9.22;100.00
56270;BME280;42176;43.240;27.880;2022-11-15T08:51:11;100795.72;;;8.89;99.88
56270;BME280;42176;43.240;27.880;2022-11-15T08:53:36;100794.00;;;8.79;100.00
56270;BME280;42176;43.240;27.880;2022-11-15T08:56:02;100792.16;;;9.03;100.00
56270;BME280;42176;43.240;27.880;2022-11-15T08:58:27;100776.03;;;9.40;100.00
56270;BME280;42176;43.240;27.880;2022-11-15T09:00:53;100778.69;;;9.41;100.00
56270;BME280;42176;43.240;27.880;2022-11-15T09:03:18;100777.88;;;9.32;100.00
56270;BME280;42176;43.240;27.880;2022-11-15T09:05:44;100769.19;;;9.08;92.78
56270;BME280;42176;43.240;27.880;2022-11-15T09:08:09;100770.84;;;9.27;100.00
56270;BME280;42176;43.240;27.880;2022-11-15T09:10:36;100767.00;;;9.69;100.00
56270;BME280;42176;43.240;27.880;2022-11-15T09:13:01;100720.56;;;9.31;100.00
56270;BME280;42176;43.240;27.880;2022-11-15T09:15:27;100768.06;;;9.49;99.45
56270;BME280;42176;43.240;27.880;2022-11-15T09:17:52;100767.25;;;9.35;96.45
56270;BME280;42176;43.240;27.880;2022-11-15T09:20:18;100760.06;;;9.52;100.00
56270;BME280;42176;43.240;27.880;2022-11-15T09:22:43;100756.34;;;9.78;100.00
56270;BME280;42176;43.240;27.880;2022-11-15T09:25:09;100760.53;;;10.02;100.00
56270;BME280;42176;43.240;27.880;2022-11-15T09:27:34;100754.47;;;9.89;98.10
56270;BME280;42176;43.240;27.880;2022-11-15T09:30:00;100749.44;;;9.62;93.79
56270;BME280;42176;43.240;27.880;2022-11-15T09:32:28;100752.81;;;9.78;100.00
56270;BME280;42176;43.240;27.880;2022-11-15T09:34:55;100747.16;;;10.13;100.00
56270;BME280;42176;43.240;27.880;2022-11-15T09:37:21;100741.94;;;10.10;98.45
56270;BME280;42176;43.240;27.880;2022-11-15T09:39:46;100736.78;;;9.95;95.50
56270;BME280;42176;43.240;27.880;2022-11-15T09:42:30;100735.06;;;9.87;97.46
56270;BME280;42176;43.240;27.880;2022-11-15T09:50:41;100729.19;;;10.43;94.74
56270;BME280;42176;43.240;27.880;2022-11-15T09:53:11;100720.44;;;10.38;93.33
56270;BME280;42176;43.240;27.880;2022-11-15T09:55:54;100734.22;;;10.68;100.00
56270;BME280;42176;43.240;27.880;2022-11-15T09:58:29;100726.88;;;10.89;97.89
56270;BME280;42176;43.240;27.880;2022-11-15T10:00:59;100726.19;;;10.73;93.62
56270;BME280;42176;43.240;27.880;2022-11-15T10:03:37;100715.72;;;10.63;94.16
56270;BME280;42176;43.240;27.880;2022-11-15T10:06:17;100710.94;;;10.90;96.30
56270;BME280;42176;43.240;27.880;2022-11-15T10:09:15;100710.59;;;11.14;95.38
56270;BME280;42176;43.240;27.880;2022-11-15T10:11:42;100710.19;;;11.38;94.12
56270;BME280;42176;43.240;27.880;2022-11-15T10:14:28;100708.00;;;11.65;93.43
56270;BME280;42176;43.240;27.880;2022-11-15T10:17:23;100704.94;;;11.88;90.48
56270;BME280;42176;43.240;27.880;2022-11-15T10:22:48;100687.44;;;12.25;87.48
56270;BME280;42176;43.240;27.880;2022-11-15T10:25:18;100678.41;;;12.32;86.61
56270;BME280;42176;43.240;27.880;2022-11-15T10:27:50;100670.44;;;12.34;85.22
56270;BME280;42176;43.240;27.880;2022-11-15T10:30:23;100671.97;;;12.44;84.17
56270;BME280;42176;43.240;27.880;2022-11-15T10:32:49;100667.88;;;12.29;81.64
56270;BME280;42176;43.240;27.880;2022-11-15T10:35:25;100667.63;;;11.95;83.90
56270;BME280;42176;43.240;27.880;2022-11-15T10:37:51;100666.56;;;11.55;84.59
56270;BME280;42176;43.240;27.880;2022-11-15T10:40:21;100669.69;;;11.79;100.00
56270;BME280;42176;43.240;27.880;2022-11-15T10:42:48;100660.94;;;11.73;91.64
56270;BME280;42176;43.240;27.880;2022-11-15T10:45:29;100664.72;;;11.60;88.41
56270;BME280;42176;43.240;27.880;2022-11-15T10:50:47;100651.72;;;11.45;92.32
56270;BME280;42176;43.240;27.880;2022-11-15T10:53:29;100652.16;;;11.70;92.27
56270;BME280;42176;43.240;27.880;2022-11-15T10:56:07;100640.06;;;12.00;91.98
56270;BME280;42176;43.240;27.880;2022-11-15T10:58:44;100645.34;;;12.03;87.12
56270;BME280;42176;43.240;27.880;2022-11-15T11:01:20;100636.94;;;11.80;84.53
56270;BME280;42176;43.240;27.880;2022-11-15T11:04:02;100638.84;;;11.71;89.42
56270;BME280;42176;43.240;27.880;2022-11-15T11:06:28;100641.34;;;11.81;90.52
56270;BME280;42176;43.240;27.880;2022-11-15T11:09:02;100625.88;;;12.01;94.57
56270;BME280;42176;43.240;27.880;2022-11-15T11:11:49;100622.28;;;12.06;85.38
56270;BME280;42176;43.240;27.880;2022-11-15T11:14:37;100622.50;;;11.93;85.58
56270;BME280;42176;43.240;27.880;2022-11-15T11:20:34;100609.09;;;12.01;87.89
56270;BME280;42176;43.240;27.880;2022-11-15T11:25:32;100605.75;;;12.33;86.26
56270;BME280;42176;43.240;27.880;2022-11-15T11:31:14;100595.59;;;12.12;81.38
56270;BME280;42176;43.240;27.880;2022-11-15T11:38:53;100581.97;;;12.27;83.45
56270;BME280;42176;43.240;27.880;2022-11-15T11:46:35;100577.50;;;11.84;85.85
56270;BME280;42176;43.240;27.880;2022-11-15T11:49:12;100572.91;;;11.92;85.99
56270;BME280;42176;43.240;27.880;2022-11-15T11:51:52;100566.72;;;11.92;84.10
56270;BME280;42176;43.240;27.880;2022-11-15T11:56:48;100562.72;;;11.70;86.44
56270;BME280;42176;43.240;27.880;2022-11-15T11:59:42;100562.25;;;11.95;87.37
56270;BME280;42176;43.240;27.880;2022-11-15T12:02:16;100551.16;;;12.17;85.71
56270;BME280;42176;43.240;27.880;2022-11-15T12:04:48;100546.34;;;12.34;83.90
56270;BME280;42176;43.240;27.880;2022-11-15T12:07:25;100544.97;;;12.56;82.27
56270;BME280;42176;43.240;27.880;2022-11-15T12:09:59;100553.41;;;12.75;80.94
56270;BME280;42176;43.240;27.880;2022-11-15T12:15:22;100545.91;;;12.91;79.72
56270;BME280;42176;43.240;27.880;2022-11-15T12:17:49;100536.75;;;13.01;79.10
56270;BME280;42176;43.240;27.880;2022-11-15T12:22:59;100531.72;;;13.25;77.29
56270;BME280;42176;43.240;27.880;2022-11-15T12:28:31;100527.25;;;12.56;75.24
56270;BME280;42176;43.240;27.880;2022-11-15T12:31:04;100523.31;;;12.35;79.53
56270;BME280;42176;43.240;27.880;2022-11-15T12:33:38;100519.75;;;12.36;80.39
56270;BME280;42176;43.240;27.880;2022-11-15T12:36:12;100523.88;;;12.48;84.95
56270;BME280;42176;43.240;27.880;2022-11-15T12:38:58;100506.88;;;12.55;78.63
56270;BME280;42176;43.240;27.880;2022-11-15T12:41:26;100504.44;;;12.46;78.49
56270;BME280;42176;43.240;27.880;2022-11-15T12:43:53;100501.56;;;12.16;80.12
56270;BME280;42176;43.240;27.880;2022-11-15T12:51:12;100508.72;;;12.14;81.37
56270;BME280;42176;43.240;27.880;2022-11-15T12:53:37;100501.84;;;12.03;81.27
56270;BME280;42176;43.240;27.880;2022-11-15T13:01:10;100497.38;;;12.06;84.39
56270;BME280;42176;43.240;27.880;2022-11-15T13:03:36;100494.41;;;11.77;83.16
56270;BME280;42176;43.240;27.880;2022-11-15T13:30:40;100457.16;;;12.21;81.51
56270;BME280;42176;43.240;27.880;2022-11-15T13:33:19;100454.47;;;12.23;82.60
56270;BME280;42176;43.240;27.880;2022-11-15T13:35:48;100446.41;;;12.27;82.00
56270;BME280;42176;43.240;27.880;2022-11-15T13:40:49;100453.09;;;12.44;81.01
56270;BME280;42176;43.240;27.880;2022-11-15T13:46:04;100439.69;;;12.48;79.10
56270;BME280;42176;43.240;27.880;2022-11-15T13:48:29;100444.59;;;12.29;78.49
56270;BME280;42176;43.240;27.880;2022-11-15T13:50:56;100432.84;;;12.00;78.95
56270;BME280;42176;43.240;27.880;2022-11-15T13:53:23;100442.13;;;11.81;80.18
56270;BME280;42176;43.240;27.880;2022-11-15T13:55:49;100438.06;;;11.64;83.21
56270;BME280;42176;43.240;27.880;2022-11-15T13:58:16;100446.13;;;11.58;85.06
56270;BME280;42176;43.240;27.880;2022-11-15T14:00:44;100440.88;;;11.56;86.48
56270;BME280;42176;43.240;27.880;2022-11-15T14:06:14;100432.06;;;11.10;88.63
56270;BME280;42176;43.240;27.880;2022-11-15T14:11:37;100413.63;;;11.04;87.88
56270;BME280;42176;43.240;27.880;2022-11-15T14:14:14;100429.75;;;10.93;88.63
56270;BME280;42176;43.240;27.880;2022-11-15T14:17:00;100420.28;;;10.80;90.93
56270;BME280;42176;43.240;27.880;2022-11-15T14:24:35;100410.56;;;10.77;89.11
56270;BME280;42176;43.240;27.880;2022-11-15T14:27:25;100403.59;;;10.72;91.61
56270;BME280;42176;43.240;27.880;2022-11-15T14:29:51;100410.66;;;10.74;91.51
56270;BME280;42176;43.240;27.880;2022-11-15T14:34:45;100394.78;;;10.71;92.97
56270;BME280;42176;43.240;27.880;2022-11-15T14:37:36;100393.94;;;10.69;93.59
56270;BME280;42176;43.240;27.880;2022-11-15T14:40:04;100387.84;;;10.64;92.28
56270;BME280;42176;43.240;27.880;2022-11-15T14:42:30;100382.63;;;10.59;92.13
56270;BME280;42176;43.240;27.880;2022-11-15T14:44:55;100370.88;;;10.23;90.78
56270;BME280;42176;43.240;27.880;2022-11-15T14:47:21;100376.81;;;10.35;96.02
56270;BME280;42176;43.240;27.880;2022-11-15T14:49:46;100370.63;;;10.38;96.57
56270;BME280;42176;43.240;27.880;2022-11-15T14:52:27;100373.41;;;10.29;97.42
56270;BME280;42176;43.240;27.880;2022-11-15T14:54:54;100372.56;;;10.27;98.33
56270;BME280;42176;43.240;27.880;2022-11-15T14:57:20;100371.72;;;10.23;97.30